sensor_id;sensor_type;location;lat;lon;timestamp;pressure;altitude;pressure_sealevel;temperature;humidity
22047;BME280;11187;49.412;20.956;2023-12-28T00:00:07;95513.66;;;-2.17;100.00
22047;BME280;11187;49.412;20.956;2023-12-28T00:03:02;95507.88;;;-2.15;100.00
22047;BME280;11187;49.412;20.956;2023-12-28T00:05:56;95511.31;;;-2.13;100.00
22047;BME280;11187;49.412;20.956;2023-12-28T00:08:29;95507.97;;;-2.12;100.00
22047;BME280;11187;49.412;20.956;2023-12-28T00:11:16;95503.09;;;-2.08;100.00
22047;BME280;11187;49.412;20.956;2023-12-28T00:13:49;95503.25;;;-2.04;100.00
22047;BME280;11187;49.412;20.956;2023-12-28T00:16:36;95506.63;;;-2.03;100.00
22047;BME280;11187;49.412;20.956;2023-12-28T00:19:30;95510.03;;;-2.01;100.00
22047;BME280;11187;49.412;20.956;2023-12-28T00:22:24;95509.03;;;-2.06;100.00
22047;BME280;11187;49.412;20.956;2023-12-28T00:25:18;95516.50;;;-2.08;100.00
22047;BME280;11187;49.412;20.956;2023-12-28T00:27:51;95512.41;;;-2.04;100.00
22047;BME280;11187;49.412;20.956;2023-12-28T00:30:38;95506.78;;;-1.99;100.00
22047;BME280;11187;49.412;20.956;2023-12-28T00:33:11;95517.72;;;-1.97;100.00
22047;BME280;11187;49.412;20.956;2023-12-28T00:35:58;95519.44;;;-1.96;100.00
22047;BME280;11187;49.412;20.956;2023-12-28T00:38:32;95514.47;;;-1.94;100.00
22047;BME280;11187;49.412;20.956;2023-12-28T00:41:19;95514.56;;;-1.91;100.00
22047;BME280;11187;49.412;20.956;2023-12-28T00:43:52;95512.94;;;-1.91;100.00
22047;BME280;11187;49.412;20.956;2023-12-28T00:46:39;95506.25;;;-1.90;100.00
22047;BME280;11187;49.412;20.956;2023-12-28T00:49:12;95502.09;;;-1.90;100.00
22047;BME280;11187;49.412;20.956;2023-12-28T00:51:59;95506.34;;;-1.87;100.00
22047;BME280;11187;49.412;20.956;2023-12-28T00:54:32;95508.03;;;-1.87;100.00
22047;BME280;11187;49.412;20.956;2023-12-28T00:57:19;95505.56;;;-1.86;100.00
22047;BME280;11187;49.412;20.956;2023-12-28T00:59:52;95503.97;;;-1.84;100.00
22047;BME280;11187;49.412;20.956;2023-12-28T01:02:39;95509.84;;;-1.83;100.00
22047;BME280;11187;49.412;20.956;2023-12-28T01:05:34;95494.78;;;-1.83;100.00
22047;BME280;11187;49.412;20.956;2023-12-28T01:08:07;95494.72;;;-1.85;100.00
22047;BME280;11187;49.412;20.956;2023-12-28T01:10:54;95487.25;;;-1.83;100.00
22047;BME280;11187;49.412;20.956;2023-12-28T01:13:34;95496.53;;;-1.81;100.00
22047;BME280;11187;49.412;20.956;2023-12-28T01:16:16;95489.03;;;-1.81;100.00
22047;BME280;11187;49.412;20.956;2023-12-28T01:19:03;95484.09;;;-1.78;100.00
22047;BME280;11187;49.412;20.956;2023-12-28T01:21:36;95484.09;;;-1.78;100.00
22047;BME280;11187;49.412;20.956;2023-12-28T01:24:23;95490.72;;;-1.80;100.00
22047;BME280;11187;49.412;20.956;2023-12-28T01:26:57;95485.66;;;-1.81;100.00
22047;BME280;11187;49.412;20.956;2023-12-28T01:29:51;95473.13;;;-1.81;100.00
22047;BME280;11187;49.412;20.956;2023-12-28T01:32:45;95487.25;;;-1.83;100.00
22047;BME280;11187;49.412;20.956;2023-12-28T01:35:18;95483.78;;;-1.87;100.00
22047;BME280;11187;49.412;20.956;2023-12-28T01:38:05;95480.34;;;-1.89;100.00
22047;BME280;11187;49.412;20.956;2023-12-28T01:40:44;95479.50;;;-1.90;100.00
22047;BME280;11187;49.412;20.956;2023-12-28T01:43:34;95473.41;;;-1.96;100.00
22047;BME280;11187;49.412;20.956;2023-12-28T01:46:10;95462.44;;;-2.00;100.00
22047;BME280;11187;49.412;20.956;2023-12-28T01:48:59;95456.53;;;-2.00;100.00
22047;BME280;11187;49.412;20.956;2023-12-28T01:51:34;95454.09;;;-1.99;100.00
22047;BME280;11187;49.412;20.956;2023-12-28T01:54:22;95450.78;;;-1.98;100.00
22047;BME280;11187;49.412;20.956;2023-12-28T01:56:55;95450.06;;;-1.95;100.00
22047;BME280;11187;49.412;20.956;2023-12-28T01:59:42;95450.84;;;-1.96;100.00
22047;BME280;11187;49.412;20.956;2023-12-28T02:02:16;95449.31;;;-1.93;100.00
22047;BME280;11187;49.412;20.956;2023-12-28T02:05:11;95450.22;;;-1.91;100.00
22047;BME280;11187;49.412;20.956;2023-12-28T02:08:05;95441.94;;;-1.88;100.00
22047;BME280;11187;49.412;20.956;2023-12-28T02:10:59;95442.78;;;-1.87;100.00
22047;BME280;11187;49.412;20.956;2023-12-28T02:13:33;95435.25;;;-1.87;100.00
22047;BME280;11187;49.412;20.956;2023-12-28T02:16:32;95430.28;;;-1.86;100.00
22047;BME280;11187;49.412;20.956;2023-12-28T02:19:19;95428.63;;;-1.85;100.00
22047;BME280;11187;49.412;20.956;2023-12-28T02:22:09;95428.72;;;-1.82;100.00
22047;BME280;11187;49.412;20.956;2023-12-28T02:25:12;95427.06;;;-1.82;100.00
22047;BME280;11187;49.412;20.956;2023-12-28T02:28:00;95423.69;;;-1.82;100.00
22047;BME280;11187;49.412;20.956;2023-12-28T02:30:34;95427.94;;;-1.81;100.00
22047;BME280;11187;49.412;20.956;2023-12-28T02:33:35;95429.56;;;-1.82;100.00
22047;BME280;11187;49.412;20.956;2023-12-28T02:36:18;95423.69;;;-1.82;100.00
22047;BME280;11187;49.412;20.956;2023-12-28T02:38:59;95409.31;;;-1.88;100.00
22047;BME280;11187;49.412;20.956;2023-12-28T02:41:44;95409.25;;;-1.90;100.00
22047;BME280;11187;49.412;20.956;2023-12-28T02:44:25;95402.56;;;-1.89;100.00
22047;BME280;11187;49.412;20.956;2023-12-28T02:47:05;95400.13;;;-1.87;100.00
22047;BME280;11187;49.412;20.956;2023-12-28T02:49:54;95397.53;;;-1.91;100.00
22047;BME280;11187;49.412;20.956;2023-12-28T02:52:28;95394.13;;;-1.91;100.00
22047;BME280;11187;49.412;20.956;2023-12-28T02:55:15;95392.50;;;-1.91;100.00
22047;BME280;11187;49.412;20.956;2023-12-28T02:57:49;95384.00;;;-1.94;100.00
22047;BME280;11187;49.412;20.956;2023-12-28T03:00:36;95379.81;;;-1.95;100.00
22047;BME280;11187;49.412;20.956;2023-12-28T03:03:16;95376.38;;;-1.97;100.00
22047;BME280;11187;49.412;20.956;2023-12-28T03:06:03;95382.31;;;-1.95;100.00
22047;BME280;11187;49.412;20.956;2023-12-28T03:08:36;95379.06;;;-1.91;100.00
22047;BME280;11187;49.412;20.956;2023-12-28T03:11:23;95375.78;;;-1.90;100.00
22047;BME280;11187;49.412;20.956;2023-12-28T03:13:56;95377.44;;;-1.91;100.00
22047;BME280;11187;49.412;20.956;2023-12-28T03:16:43;95375.88;;;-1.87;100.00
22047;BME280;11187;49.412;20.956;2023-12-28T03:19:30;95384.25;;;-1.86;100.00
22047;BME280;11187;49.412;20.956;2023-12-28T03:22:24;95381.00;;;-1.84;100.00
22047;BME280;11187;49.412;20.956;2023-12-28T03:24:57;95383.47;;;-1.85;100.00
22047;BME280;11187;49.412;20.956;2023-12-28T03:27:44;95380.13;;;-1.84;100.00
22047;BME280;11187;49.412;20.956;2023-12-28T03:30:17;95377.59;;;-1.86;100.00
22047;BME280;11187;49.412;20.956;2023-12-28T03:33:04;95375.03;;;-1.87;100.00
22047;BME280;11187;49.412;20.956;2023-12-28T03:35:37;95374.22;;;-1.86;100.00
22047;BME280;11187;49.412;20.956;2023-12-28T03:38:24;95369.19;;;-1.86;100.00
22047;BME280;11187;49.412;20.956;2023-12-28T03:40:57;95373.34;;;-1.87;100.00
22047;BME280;11187;49.412;20.956;2023-12-28T03:43:44;95382.66;;;-1.84;100.00
22047;BME280;11187;49.412;20.956;2023-12-28T03:46:18;95379.28;;;-1.85;100.00
22047;BME280;11187;49.412;20.956;2023-12-28T03:49:16;95372.59;;;-1.84;100.00
22047;BME280;11187;49.412;20.956;2023-12-28T03:52:10;95365.94;;;-1.84;100.00
22047;BME280;11187;49.412;20.956;2023-12-28T03:54:43;95373.56;;;-1.81;100.00
22047;BME280;11187;49.412;20.956;2023-12-28T03:57:37;95380.41;;;-1.77;100.00
22047;BME280;11187;49.412;20.956;2023-12-28T04:00:35;95377.06;;;-1.76;100.00
22047;BME280;11187;49.412;20.956;2023-12-28T04:03:29;95376.28;;;-1.75;100.00
22047;BME280;11187;49.412;20.956;2023-12-28T04:06:09;95367.88;;;-1.75;100.00
22047;BME280;11187;49.412;20.956;2023-12-28T04:08:49;95373.78;;;-1.75;100.00
22047;BME280;11187;49.412;20.956;2023-12-28T04:11:29;95372.16;;;-1.73;100.00
22047;BME280;11187;49.412;20.956;2023-12-28T04:14:09;95373.03;;;-1.72;100.00
22047;BME280;11187;49.412;20.956;2023-12-28T04:16:56;95372.22;;;-1.71;100.00
22047;BME280;11187;49.412;20.956;2023-12-28T04:19:50;95366.41;;;-1.70;100.00
22047;BME280;11187;49.412;20.956;2023-12-28T04:22:23;95369.75;;;-1.70;100.00
22047;BME280;11187;49.412;20.956;2023-12-28T04:25:10;95365.66;;;-1.67;100.00
22047;BME280;11187;49.412;20.956;2023-12-28T04:27:43;95360.66;;;-1.66;100.00
22047;BME280;11187;49.412;20.956;2023-12-28T04:30:30;95363.91;;;-1.70;100.00
22047;BME280;11187;49.412;20.956;2023-12-28T04:33:03;95369.69;;;-1.71;100.00
22047;BME280;11187;49.412;20.956;2023-12-28T04:36:04;95361.31;;;-1.72;100.00
22047;BME280;11187;49.412;20.956;2023-12-28T04:38:41;95363.91;;;-1.70;100.00
22047;BME280;11187;49.412;20.956;2023-12-28T04:41:28;95358.88;;;-1.70;100.00
22047;BME280;11187;49.412;20.956;2023-12-28T04:44:02;95372.31;;;-1.68;100.00
22047;BME280;11187;49.412;20.956;2023-12-28T04:46:56;95366.44;;;-1.69;100.00
22047;BME280;11187;49.412;20.956;2023-12-28T04:49:50;95362.22;;;-1.70;100.00
22047;BME280;11187;49.412;20.956;2023-12-28T04:52:23;95358.06;;;-1.69;100.00
22047;BME280;11187;49.412;20.956;2023-12-28T04:55:10;95363.91;;;-1.70;100.00
22047;BME280;11187;49.412;20.956;2023-12-28T04:57:43;95363.78;;;-1.73;100.00
22047;BME280;11187;49.412;20.956;2023-12-28T05:00:30;95362.94;;;-1.74;100.00
22047;BME280;11187;49.412;20.956;2023-12-28T05:03:04;95366.28;;;-1.73;100.00
22047;BME280;11187;49.412;20.956;2023-12-28T05:05:58;95357.06;;;-1.74;100.00
22047;BME280;11187;49.412;20.956;2023-12-28T05:08:52;95356.16;;;-1.76;100.00
22047;BME280;11187;49.412;20.956;2023-12-28T05:11:25;95362.72;;;-1.80;100.00
22047;BME280;11187;49.412;20.956;2023-12-28T05:14:12;95355.25;;;-1.78;100.00
22047;BME280;11187;49.412;20.956;2023-12-28T05:16:52;95355.25;;;-1.78;100.00
22047;BME280;11187;49.412;20.956;2023-12-28T05:19:46;95356.06;;;-1.79;100.00
22047;BME280;11187;49.412;20.956;2023-12-28T05:22:40;95357.69;;;-1.80;100.00
22047;BME280;11187;49.412;20.956;2023-12-28T05:25:13;95354.28;;;-1.82;100.00
22047;BME280;11187;49.412;20.956;2023-12-28T05:28:00;95357.66;;;-1.81;100.00
22047;BME280;11187;49.412;20.956;2023-12-28T05:30:33;95357.59;;;-1.83;100.00
22047;BME280;11187;49.412;20.956;2023-12-28T05:33:27;95357.59;;;-1.83;100.00
22047;BME280;11187;49.412;20.956;2023-12-28T05:36:21;95352.69;;;-1.80;100.00
22047;BME280;11187;49.412;20.956;2023-12-28T05:38:54;95362.69;;;-1.81;100.00
22047;BME280;11187;49.412;20.956;2023-12-28T05:41:41;95355.03;;;-1.84;100.00
22047;BME280;11187;49.412;20.956;2023-12-28T05:44:14;95358.44;;;-1.84;100.00
22047;BME280;11187;49.412;20.956;2023-12-28T05:47:01;95354.19;;;-1.85;100.00
22047;BME280;11187;49.412;20.956;2023-12-28T05:49:34;95355.84;;;-1.85;100.00
22047;BME280;11187;49.412;20.956;2023-12-28T05:52:22;95339.94;;;-1.86;100.00
22047;BME280;11187;49.412;20.956;2023-12-28T05:54:55;95353.44;;;-1.82;100.00
22047;BME280;11187;49.412;20.956;2023-12-28T05:57:43;95353.56;;;-1.79;100.00
22047;BME280;11187;49.412;20.956;2023-12-28T06:00:17;95356.06;;;-1.79;100.00
22047;BME280;11187;49.412;20.956;2023-12-28T06:03:04;95347.66;;;-1.80;100.00
22047;BME280;11187;49.412;20.956;2023-12-28T06:05:38;95352.75;;;-1.78;100.00
22047;BME280;11187;49.412;20.956;2023-12-28T06:08:25;95357.69;;;-1.80;100.00
22047;BME280;11187;49.412;20.956;2023-12-28T06:10:58;95372.75;;;-1.80;100.00
22047;BME280;11187;49.412;20.956;2023-12-28T06:13:52;95365.34;;;-1.77;100.00
22047;BME280;11187;49.412;20.956;2023-12-28T06:16:25;95368.66;;;-1.78;100.00
22047;BME280;11187;49.412;20.956;2023-12-28T06:19:14;95380.34;;;-1.78;100.00
22047;BME280;11187;49.412;20.956;2023-12-28T06:21:54;95385.44;;;-1.77;100.00
22047;BME280;11187;49.412;20.956;2023-12-28T06:24:37;95383.00;;;-1.74;100.00
22047;BME280;11187;49.412;20.956;2023-12-28T06:27:18;95380.66;;;-1.69;100.00
22047;BME280;11187;49.412;20.956;2023-12-28T06:30:05;95382.38;;;-1.68;100.00
22047;BME280;11187;49.412;20.956;2023-12-28T06:32:41;95395.72;;;-1.69;100.00
22047;BME280;11187;49.412;20.956;2023-12-28T06:35:28;95387.38;;;-1.68;100.00
22047;BME280;11187;49.412;20.956;2023-12-28T06:38:01;95390.75;;;-1.67;100.00
22047;BME280;11187;49.412;20.956;2023-12-28T06:40:48;95394.91;;;-1.68;100.00
22047;BME280;11187;49.412;20.956;2023-12-28T06:43:21;95395.75;;;-1.67;100.00
22047;BME280;11187;49.412;20.956;2023-12-28T06:46:08;95398.22;;;-1.69;100.00
22047;BME280;11187;49.412;20.956;2023-12-28T06:48:48;95393.25;;;-1.67;100.00
22047;BME280;11187;49.412;20.956;2023-12-28T06:51:28;95385.75;;;-1.66;100.00
22047;BME280;11187;49.412;20.956;2023-12-28T06:54:08;95390.91;;;-1.63;100.00
22047;BME280;11187;49.412;20.956;2023-12-28T06:56:55;95386.63;;;-1.65;100.00
22047;BME280;11187;49.412;20.956;2023-12-28T06:59:35;95390.78;;;-1.66;100.00
22047;BME280;11187;49.412;20.956;2023-12-28T07:02:15;95393.41;;;-1.63;100.00
22047;BME280;11187;49.412;20.956;2023-12-28T07:04:55;95401.78;;;-1.62;100.00
22047;BME280;11187;49.412;20.956;2023-12-28T07:07:43;95394.25;;;-1.62;100.00
22047;BME280;11187;49.412;20.956;2023-12-28T07:10:16;95398.44;;;-1.61;100.00
22047;BME280;11187;49.412;20.956;2023-12-28T07:13:03;95404.34;;;-1.61;100.00
22047;BME280;11187;49.412;20.956;2023-12-28T07:15:36;95406.03;;;-1.60;100.00
22047;BME280;11187;49.412;20.956;2023-12-28T07:18:23;95417.06;;;-1.56;100.00
22047;BME280;11187;49.412;20.956;2023-12-28T07:21:03;95415.44;;;-1.54;100.00
22047;BME280;11187;49.412;20.956;2023-12-28T07:23:50;95415.47;;;-1.53;100.00
22047;BME280;11187;49.412;20.956;2023-12-28T07:26:30;95414.84;;;-1.47;100.00
22047;BME280;11187;49.412;20.956;2023-12-28T07:29:17;95408.34;;;-1.40;100.00
22047;BME280;11187;49.412;20.956;2023-12-28T07:32:00;95406.84;;;-1.35;100.00
22047;BME280;11187;49.412;20.956;2023-12-28T07:34:43;95412.06;;;-1.29;100.00
22047;BME280;11187;49.412;20.956;2023-12-28T07:37:23;95414.72;;;-1.24;100.00
22047;BME280;11187;49.412;20.956;2023-12-28T07:40:03;95413.97;;;-1.22;100.00
22047;BME280;11187;49.412;20.956;2023-12-28T07:42:44;95415.72;;;-1.19;100.00
22047;BME280;11187;49.412;20.956;2023-12-28T07:45:24;95412.44;;;-1.17;100.00
22047;BME280;11187;49.412;20.956;2023-12-28T07:48:04;95409.13;;;-1.16;100.00
22047;BME280;11187;49.412;20.956;2023-12-28T07:50:51;95396.66;;;-1.13;100.00
22047;BME280;11187;49.412;20.956;2023-12-28T07:53:31;95395.97;;;-1.07;100.00
22047;BME280;11187;49.412;20.956;2023-12-28T07:56:11;95393.72;;;-0.99;100.00
22047;BME280;11187;49.412;20.956;2023-12-28T07:59:05;95395.56;;;-0.94;100.00
22047;BME280;11187;49.412;20.956;2023-12-28T08:01:39;95394.84;;;-0.90;100.00
22047;BME280;11187;49.412;20.956;2023-12-28T08:04:33;95397.50;;;-0.85;100.00
22047;BME280;11187;49.412;20.956;2023-12-28T08:07:06;95401.88;;;-0.79;100.00
22047;BME280;11187;49.412;20.956;2023-12-28T08:09:54;95396.06;;;-0.77;100.00
22047;BME280;11187;49.412;20.956;2023-12-28T08:12:27;95403.78;;;-0.71;100.00
22047;BME280;11187;49.412;20.956;2023-12-28T08:15:15;95403.97;;;-0.65;100.00
22047;BME280;11187;49.412;20.956;2023-12-28T08:17:48;95408.22;;;-0.62;100.00
22047;BME280;11187;49.412;20.956;2023-12-28T08:20:42;95401.66;;;-0.57;100.00
22047;BME280;11187;49.412;20.956;2023-12-28T08:23:15;95408.59;;;-0.50;100.00
22047;BME280;11187;49.412;20.956;2023-12-28T08:26:02;95407.94;;;-0.43;100.00
22047;BME280;11187;49.412;20.956;2023-12-28T08:28:35;95408.09;;;-0.36;100.00
22047;BME280;11187;49.412;20.956;2023-12-28T08:31:22;95417.50;;;-0.31;100.00
22047;BME280;11187;49.412;20.956;2023-12-28T08:33:55;95426.03;;;-0.26;100.00
22047;BME280;11187;49.412;20.956;2023-12-28T08:36:42;95425.38;;;-0.18;100.00
22047;BME280;11187;49.412;20.956;2023-12-28T08:39:15;95429.75;;;-0.13;100.00
22047;BME280;11187;49.412;20.956;2023-12-28T08:42:09;95427.34;;;-0.08;100.00
22047;BME280;11187;49.412;20.956;2023-12-28T08:44:42;95435.06;;;-0.02;100.00
22047;BME280;11187;49.412;20.956;2023-12-28T08:47:36;95420.94;;;0.03;100.00
22047;BME280;11187;49.412;20.956;2023-12-28T08:50:09;95413.50;;;0.08;100.00
22047;BME280;11187;49.412;20.956;2023-12-28T08:52:56;95417.84;;;0.13;100.00
22047;BME280;11187;49.412;20.956;2023-12-28T08:55:29;95417.22;;;0.22;100.00
22047;BME280;11187;49.412;20.956;2023-12-28T08:58:16;95405.72;;;0.32;100.00
22047;BME280;11187;49.412;20.956;2023-12-28T09:00:49;95405.09;;;0.40;100.00
22047;BME280;11187;49.412;20.956;2023-12-28T09:03:36;95397.66;;;0.45;100.00
22047;BME280;11187;49.412;20.956;2023-12-28T09:06:09;95395.25;;;0.48;100.00
22047;BME280;11187;49.412;20.956;2023-12-28T09:09:03;95400.41;;;0.54;100.00
22047;BME280;11187;49.412;20.956;2023-12-28T09:11:57;95408.97;;;0.59;100.00
22047;BME280;11187;49.412;20.956;2023-12-28T09:14:30;95398.94;;;0.62;100.00
22047;BME280;11187;49.412;20.956;2023-12-28T09:17:17;95404.97;;;0.69;100.00
22047;BME280;11187;49.412;20.956;2023-12-28T09:19:50;95403.47;;;0.76;100.00
22047;BME280;11187;49.412;20.956;2023-12-28T09:22:38;95404.38;;;0.79;100.00
22047;BME280;11187;49.412;20.956;2023-12-28T09:25:11;95405.41;;;0.88;100.00
22047;BME280;11187;49.412;20.956;2023-12-28T09:28:05;95407.31;;;0.96;100.00
22047;BME280;11187;49.412;20.956;2023-12-28T09:30:38;95399.00;;;1.00;100.00
22047;BME280;11187;49.412;20.956;2023-12-28T09:33:32;95397.47;;;1.07;100.00
22047;BME280;11187;49.412;20.956;2023-12-28T09:36:26;95390.13;;;1.18;100.00
22047;BME280;11187;49.412;20.956;2023-12-28T09:39:20;95375.22;;;1.29;100.00
22047;BME280;11187;49.412;20.956;2023-12-28T09:42:04;95377.94;;;1.36;100.00
22047;BME280;11187;49.412;20.956;2023-12-28T09:44:58;95377.16;;;1.39;100.00
22047;BME280;11187;49.412;20.956;2023-12-28T09:47:53;95379.81;;;1.46;100.00
22047;BME280;11187;49.412;20.956;2023-12-28T09:50:51;95374.91;;;1.53;100.00
22047;BME280;11187;49.412;20.956;2023-12-28T09:53:27;95369.13;;;1.58;100.00
22047;BME280;11187;49.412;20.956;2023-12-28T09:56:14;95359.13;;;1.63;100.00
22047;BME280;11187;49.412;20.956;2023-12-28T09:58:50;95356.66;;;1.66;100.00
22047;BME280;11187;49.412;20.956;2023-12-28T10:01:45;95355.88;;;1.70;100.00
22047;BME280;11187;49.412;20.956;2023-12-28T10:04:21;95359.28;;;1.71;100.00
22047;BME280;11187;49.412;20.956;2023-12-28T10:07:09;95355.22;;;1.77;100.00
22047;BME280;11187;49.412;20.956;2023-12-28T10:09:42;95357.81;;;1.82;100.00
22047;BME280;11187;49.412;20.956;2023-12-28T10:12:32;95343.59;;;1.87;100.00
22047;BME280;11187;49.412;20.956;2023-12-28T10:15:06;95348.69;;;1.90;100.00
22047;BME280;11187;49.412;20.956;2023-12-28T10:18:00;95333.66;;;1.96;100.00
22047;BME280;11187;49.412;20.956;2023-12-28T10:20:54;95336.31;;;2.02;100.00
22047;BME280;11187;49.412;20.956;2023-12-28T10:23:27;95337.19;;;2.04;100.00
22047;BME280;11187;49.412;20.956;2023-12-28T10:26:21;95323.69;;;2.04;100.00
22047;BME280;11187;49.412;20.956;2023-12-28T10:28:59;95326.22;;;2.04;100.00
22047;BME280;11187;49.412;20.956;2023-12-28T10:31:46;95326.25;;;2.05;100.00
22047;BME280;11187;49.412;20.956;2023-12-28T10:34:24;95319.56;;;2.07;100.00
22047;BME280;11187;49.412;20.956;2023-12-28T10:37:11;95320.44;;;2.11;100.00
22047;BME280;11187;49.412;20.956;2023-12-28T10:39:46;95320.63;;;2.20;100.00
22047;BME280;11187;49.412;20.956;2023-12-28T10:42:51;95315.59;;;2.22;100.00
22047;BME280;11187;49.412;20.956;2023-12-28T10:45:26;95319.84;;;2.23;100.00
22047;BME280;11187;49.412;20.956;2023-12-28T10:48:13;95294.56;;;2.24;100.00
22047;BME280;11187;49.412;20.956;2023-12-28T10:50:49;95296.25;;;2.24;100.00
22047;BME280;11187;49.412;20.956;2023-12-28T10:53:51;95302.19;;;2.26;100.00
22047;BME280;11187;49.412;20.956;2023-12-28T10:56:46;95299.66;;;2.26;100.00
22047;BME280;11187;49.412;20.956;2023-12-28T11:00:04;95305.63;;;2.29;100.00
22047;BME280;11187;49.412;20.956;2023-12-28T11:02:52;95295.53;;;2.31;100.00
22047;BME280;11187;49.412;20.956;2023-12-28T11:05:33;95298.13;;;2.34;100.00
22047;BME280;11187;49.412;20.956;2023-12-28T11:08:15;95293.91;;;2.35;100.00
22047;BME280;11187;49.412;20.956;2023-12-28T11:11:11;95295.59;;;2.34;100.00
22047;BME280;11187;49.412;20.956;2023-12-28T11:13:54;95289.72;;;2.35;100.00
22047;BME280;11187;49.412;20.956;2023-12-28T11:16:43;95289.72;;;2.35;100.00
22047;BME280;11187;49.412;20.956;2023-12-28T11:19:30;95279.63;;;2.37;100.00
22047;BME280;11187;49.412;20.956;2023-12-28T11:22:25;95277.09;;;2.38;100.00
22047;BME280;11187;49.412;20.956;2023-12-28T11:25:19;95273.78;;;2.39;100.00
22047;BME280;11187;49.412;20.956;2023-12-28T11:27:52;95274.66;;;2.41;100.00
22047;BME280;11187;49.412;20.956;2023-12-28T11:30:46;95265.44;;;2.45;100.00
22047;BME280;11187;49.412;20.956;2023-12-28T11:33:20;95261.25;;;2.45;100.00
22047;BME280;11187;49.412;20.956;2023-12-28T11:36:10;95259.56;;;2.47;100.00
22047;BME280;11187;49.412;20.956;2023-12-28T11:38:43;95267.25;;;2.54;100.00
22047;BME280;11187;49.412;20.956;2023-12-28T11:41:33;95262.22;;;2.55;100.00
22047;BME280;11187;49.412;20.956;2023-12-28T11:44:08;95253.00;;;2.57;100.00
22047;BME280;11187;49.412;20.956;2023-12-28T11:46:57;95253.84;;;2.58;100.00
22047;BME280;11187;49.412;20.956;2023-12-28T11:49:31;95249.63;;;2.58;100.00
22047;BME280;11187;49.412;20.956;2023-12-28T11:52:31;95261.44;;;2.61;100.00
22047;BME280;11187;49.412;20.956;2023-12-28T11:55:05;95251.38;;;2.62;100.00
22047;BME280;11187;49.412;20.956;2023-12-28T11:57:52;95240.41;;;2.63;100.00
22047;BME280;11187;49.412;20.956;2023-12-28T12:00:32;95240.41;;;2.63;100.00
22047;BME280;11187;49.412;20.956;2023-12-28T12:03:12;95240.47;;;2.68;100.00
22047;BME280;11187;49.412;20.956;2023-12-28T12:05:53;95244.72;;;2.69;100.00
22047;BME280;11187;49.412;20.956;2023-12-28T12:08:44;95246.47;;;2.75;100.00
22047;BME280;11187;49.412;20.956;2023-12-28T12:11:18;95248.16;;;2.74;100.00
22047;BME280;11187;49.412;20.956;2023-12-28T12:14:12;95253.22;;;2.74;100.00
22047;BME280;11187;49.412;20.956;2023-12-28T12:16:52;95258.28;;;2.74;100.00
22047;BME280;11187;49.412;20.956;2023-12-28T12:19:32;95256.59;;;2.75;100.00
22047;BME280;11187;49.412;20.956;2023-12-28T12:22:13;95243.09;;;2.74;100.00
22047;BME280;11187;49.412;20.956;2023-12-28T12:24:56;95251.59;;;2.78;100.00
22047;BME280;11187;49.412;20.956;2023-12-28T12:27:38;95245.69;;;2.77;100.00
22047;BME280;11187;49.412;20.956;2023-12-28T12:30:19;95246.50;;;2.76;100.00
22047;BME280;11187;49.412;20.956;2023-12-28T12:32:59;95247.38;;;2.78;100.00
22047;BME280;11187;49.412;20.956;2023-12-28T12:35:46;95240.63;;;2.77;100.00
22047;BME280;11187;49.412;20.956;2023-12-28T12:38:26;95251.59;;;2.78;100.00
22047;BME280;11187;49.412;20.956;2023-12-28T12:41:13;95259.19;;;2.78;100.00
22047;BME280;11187;49.412;20.956;2023-12-28T12:43:46;95250.75;;;2.77;100.00
22047;BME280;11187;49.412;20.956;2023-12-28T12:46:36;95255.00;;;2.80;100.00
22047;BME280;11187;49.412;20.956;2023-12-28T12:49:16;95257.53;;;2.80;100.00
22047;BME280;11187;49.412;20.956;2023-12-28T12:51:58;95250.81;;;2.82;100.00
22047;BME280;11187;49.412;20.956;2023-12-28T12:54:38;95255.88;;;2.83;100.00
22047;BME280;11187;49.412;20.956;2023-12-28T12:57:18;95254.16;;;2.81;100.00
22047;BME280;11187;49.412;20.956;2023-12-28T12:59:58;95249.94;;;2.80;100.00
22047;BME280;11187;49.412;20.956;2023-12-28T13:02:42;95249.06;;;2.79;100.00
22047;BME280;11187;49.412;20.956;2023-12-28T13:05:28;95254.13;;;2.79;100.00
22047;BME280;11187;49.412;20.956;2023-12-28T13:08:08;95250.78;;;2.80;100.00
22047;BME280;11187;49.412;20.956;2023-12-28T13:10:48;95254.16;;;2.81;100.00
22047;BME280;11187;49.412;20.956;2023-12-28T13:13:28;95247.41;;;2.80;100.00
22047;BME280;11187;49.412;20.956;2023-12-28T13:16:08;95247.38;;;2.78;100.00
22047;BME280;11187;49.412;20.956;2023-12-28T13:18:48;95244.81;;;2.77;100.00
22047;BME280;11187;49.412;20.956;2023-12-28T13:21:28;95237.22;;;2.77;100.00
22047;BME280;11187;49.412;20.956;2023-12-28T13:24:08;95239.72;;;2.74;100.00
22047;BME280;11187;49.412;20.956;2023-12-28T13:26:48;95236.34;;;2.73;100.00
22047;BME280;11187;49.412;20.956;2023-12-28T13:29:28;95233.00;;;2.72;100.00
22047;BME280;11187;49.412;20.956;2023-12-28T13:32:09;95220.34;;;2.72;100.00
22047;BME280;11187;49.412;20.956;2023-12-28T13:34:56;95221.19;;;2.73;100.00
22047;BME280;11187;49.412;20.956;2023-12-28T13:37:34;95222.00;;;2.70;100.00
22047;BME280;11187;49.412;20.956;2023-12-28T13:40:21;95222.81;;;2.69;100.00
22047;BME280;11187;49.412;20.956;2023-12-28T13:42:54;95211.91;;;2.70;100.00
22047;BME280;11187;49.412;20.956;2023-12-28T13:45:41;95227.06;;;2.70;100.00
22047;BME280;11187;49.412;20.956;2023-12-28T13:48:21;95212.72;;;2.69;100.00
22047;BME280;11187;49.412;20.956;2023-12-28T13:51:01;95214.41;;;2.70;100.00
22047;BME280;11187;49.412;20.956;2023-12-28T13:53:41;95218.63;;;2.71;100.00
22047;BME280;11187;49.412;20.956;2023-12-28T13:56:21;95227.88;;;2.69;100.00
22047;BME280;11187;49.412;20.956;2023-12-28T13:59:01;95216.06;;;2.70;100.00
22047;BME280;11187;49.412;20.956;2023-12-28T14:01:48;95210.16;;;2.68;100.00
22047;BME280;11187;49.412;20.956;2023-12-28T14:04:21;95215.19;;;2.66;100.00